createdAt,value
2019-03-11T00:01:01.738Z,83.09
2019-03-11T00:03:09.638Z,82.99
2019-03-11T00:05:16.525Z,82.91
2019-03-11T00:07:23.434Z,82.92
2019-03-11T00:09:30.253Z,82.95
2019-03-11T00:11:37.043Z,82.83
2019-03-11T00:13:43.874Z,82.78
2019-03-11T00:15:50.728Z,82.80
2019-03-11T00:17:57.543Z,82.81
2019-03-11T00:20:05.565Z,82.80
2019-03-11T00:22:12.371Z,82.75
2019-03-11T00:24:19.204Z,82.75
2019-03-11T00:26:26.113Z,82.80
2019-03-11T00:28:33.007Z,82.71
2019-03-11T00:30:39.942Z,82.74
2019-03-11T00:32:46.724Z,82.97
2019-03-11T00:34:53.559Z,83.08
2019-03-11T00:37:00.389Z,83.10
2019-03-11T00:39:08.506Z,83.17
2019-03-11T00:41:15.400Z,83.01
2019-03-11T00:43:22.293Z,82.48
2019-03-11T00:45:29.104Z,82.51
2019-03-11T00:47:35.910Z,82.42
2019-03-11T00:49:42.728Z,81.75
2019-03-11T00:51:50.326Z,81.47
2019-03-11T00:53:57.225Z,81.36
2019-03-11T00:56:05.078Z,81.75
2019-03-11T00:58:11.874Z,80.97
2019-03-11T01:00:34.334Z,81.52
2019-03-11T01:02:41.255Z,81.77
2019-03-11T01:04:48.138Z,82.03
2019-03-11T01:06:55.051Z,82.37
2019-03-11T01:09:01.954Z,82.65
2019-03-11T01:11:10.323Z,83.12
2019-03-11T01:13:17.176Z,83.30
2019-03-11T01:15:23.937Z,83.52
2019-03-11T01:17:30.742Z,83.81
2019-03-11T01:19:37.544Z,84.03
2019-03-11T01:21:44.385Z,84.23
2019-03-11T01:23:51.175Z,84.32
2019-03-11T01:25:58.032Z,84.40
2019-03-11T01:28:04.959Z,84.56
2019-03-11T01:30:17.424Z,84.72
2019-03-11T01:32:24.228Z,84.85
2019-03-11T01:34:31.049Z,84.99
2019-03-11T01:36:37.930Z,85.14
2019-03-11T01:38:44.741Z,85.26
2019-03-11T01:40:51.676Z,85.33
2019-03-11T01:42:58.499Z,85.41
2019-03-11T01:45:11.661Z,85.46
2019-03-11T01:47:18.521Z,85.53
2019-03-11T01:49:25.337Z,85.54
2019-03-11T01:51:32.201Z,85.58
2019-03-11T01:53:40.660Z,85.59
2019-03-11T01:55:47.546Z,85.62
2019-03-11T01:57:54.344Z,85.62
2019-03-11T02:00:01.219Z,85.63
2019-03-11T02:02:08.541Z,85.65
2019-03-11T02:04:15.337Z,85.70
2019-03-11T02:06:22.186Z,85.71
2019-03-11T02:08:28.980Z,85.67
2019-03-11T02:10:35.760Z,85.68
2019-03-11T02:12:42.699Z,85.67
2019-03-11T02:14:49.599Z,85.72
2019-03-11T02:16:56.427Z,85.81
2019-03-11T02:19:03.285Z,86.05
2019-03-11T02:21:10.140Z,86.14
2019-03-11T02:23:16.889Z,86.19
2019-03-11T02:25:23.735Z,86.20
2019-03-11T02:27:30.534Z,86.26
2019-03-11T02:29:37.344Z,86.32
2019-03-11T02:31:44.180Z,86.30
2019-03-11T02:33:51.056Z,86.33
2019-03-11T02:35:57.910Z,86.21
2019-03-11T02:38:04.914Z,86.20
2019-03-11T02:40:15.052Z,86.20
2019-03-11T02:42:21.934Z,86.25
2019-03-11T02:44:28.819Z,86.30
2019-03-11T02:46:35.653Z,86.32
2019-03-11T02:48:42.471Z,86.27
2019-03-11T02:50:49.373Z,86.22
2019-03-11T02:52:56.231Z,86.16
2019-03-11T02:55:03.097Z,86.15
2019-03-11T02:57:10.047Z,86.13
2019-03-11T02:59:16.831Z,86.11
2019-03-11T03:01:30.978Z,85.98
2019-03-11T03:03:39.634Z,85.99
2019-03-11T03:05:51.086Z,85.97
2019-03-11T03:07:57.912Z,85.97
2019-03-11T03:10:07.019Z,86.00
2019-03-11T03:12:14.049Z,85.90
2019-03-11T03:14:20.855Z,85.88
2019-03-11T03:16:27.709Z,85.91
2019-03-11T03:18:34.576Z,85.87
2019-03-11T03:20:41.372Z,85.82
2019-03-11T03:22:48.211Z,85.83
2019-03-11T03:24:56.291Z,85.87
2019-03-11T03:27:03.203Z,85.87
2019-03-11T03:29:10.035Z,85.85
2019-03-11T03:31:16.911Z,85.80
2019-03-11T03:33:23.707Z,85.80
2019-03-11T03:35:30.581Z,85.84
2019-03-11T03:37:37.400Z,85.79
2019-03-11T03:39:44.221Z,85.85
2019-03-11T03:41:51.125Z,85.91
2019-03-11T03:43:58.034Z,85.84
2019-03-11T03:46:17.963Z,85.81
2019-03-11T03:48:13.435Z,85.79
2019-03-11T03:50:22.072Z,85.71
2019-03-11T03:52:28.942Z,85.66
2019-03-11T03:54:35.745Z,85.68
2019-03-11T03:56:42.601Z,85.53
2019-03-11T03:58:49.521Z,85.56
2019-03-11T04:00:56.380Z,85.62
2019-03-11T04:03:03.304Z,85.52
2019-03-11T04:05:12.878Z,85.55
2019-03-11T04:07:19.761Z,85.58
2019-03-11T04:09:26.730Z,85.61
2019-03-11T04:11:33.639Z,85.60
2019-03-11T04:13:40.572Z,85.65
2019-03-11T04:15:47.684Z,85.73
2019-03-11T04:17:54.541Z,85.71
2019-03-11T04:20:01.371Z,85.71
2019-03-11T04:22:08.286Z,85.74
2019-03-11T04:24:15.144Z,85.69
2019-03-11T04:26:23.387Z,85.66
2019-03-11T04:28:30.275Z,85.71
2019-03-11T04:30:37.062Z,85.70
2019-03-11T04:32:43.903Z,85.53
2019-03-11T04:34:50.748Z,85.57
2019-03-11T04:36:57.555Z,85.56
2019-03-11T04:39:05.666Z,85.39
2019-03-11T04:41:12.907Z,85.35
2019-03-11T04:43:19.821Z,85.28
2019-03-11T04:45:26.657Z,85.13
2019-03-11T04:47:33.607Z,84.83
2019-03-11T04:49:40.427Z,84.70
2019-03-11T04:51:47.263Z,84.84
2019-03-11T04:53:54.090Z,84.55
2019-03-11T04:56:01.110Z,84.45
2019-03-11T04:58:07.881Z,84.60
2019-03-11T05:00:24.220Z,84.56
2019-03-11T05:02:33.190Z,84.47
2019-03-11T05:04:41.526Z,84.50
2019-03-11T05:06:48.438Z,84.22
2019-03-11T05:08:55.353Z,84.28
2019-03-11T05:11:02.256Z,83.88
2019-03-11T05:13:09.146Z,83.95
2019-03-11T05:15:16.739Z,83.94
2019-03-11T05:17:23.644Z,83.60
2019-03-11T05:19:30.508Z,83.55
2019-03-11T05:21:37.417Z,83.36
2019-03-11T05:23:44.329Z,83.51
2019-03-11T05:25:51.255Z,83.37
2019-03-11T05:27:58.121Z,83.28
2019-03-11T05:30:08.612Z,83.42
2019-03-11T05:32:15.451Z,83.40
2019-03-11T05:34:22.288Z,83.39
2019-03-11T05:36:29.284Z,83.01
2019-03-11T05:38:36.239Z,82.94
2019-03-11T05:40:43.244Z,82.99
2019-03-11T07:35:37.987Z,52.77
2019-03-11T07:37:44.735Z,57.51
2019-03-11T07:39:51.382Z,58.84
2019-03-11T07:41:58.063Z,60.13
2019-03-11T07:44:04.728Z,61.56
2019-03-11T07:46:11.401Z,62.21
2019-03-11T07:48:18.094Z,63.38
2019-03-11T07:50:24.761Z,62.28
2019-03-11T07:52:31.525Z,63.64
2019-03-11T07:54:38.338Z,63.69
2019-03-11T07:56:45.040Z,64.34
2019-03-11T07:58:51.771Z,64.97
2019-03-11T08:00:58.451Z,64.44
2019-03-11T08:03:05.183Z,64.34
2019-03-11T08:05:11.909Z,63.34
2019-03-11T08:07:18.654Z,61.49
2019-03-11T08:09:36.941Z,61.77
2019-03-11T08:11:33.841Z,62.66
2019-03-11T08:13:40.544Z,60.35
2019-03-11T08:15:47.228Z,60.57
2019-03-11T08:17:54.338Z,56.97
2019-03-11T08:20:01.293Z,57.91
2019-03-11T08:22:08.413Z,56.63
2019-03-11T08:24:16.703Z,55.85
2019-03-11T08:26:23.717Z,54.79
2019-03-11T08:28:30.448Z,55.30
2019-03-11T08:30:37.097Z,57.60
2019-03-11T08:32:43.844Z,57.58
2019-03-11T08:34:50.504Z,57.65
2019-03-11T08:36:57.691Z,57.77
2019-03-11T08:39:06.098Z,58.01
2019-03-11T08:41:14.060Z,57.40
2019-03-11T08:43:20.793Z,57.38
2019-03-11T08:45:27.532Z,57.50
2019-03-11T08:47:34.197Z,58.50
2019-03-11T08:49:40.864Z,58.65
2019-03-11T08:51:47.554Z,58.50
2019-03-11T08:53:54.289Z,57.26
2019-03-11T08:56:00.961Z,56.38
2019-03-11T08:58:07.642Z,55.86
2019-03-11T09:00:24.506Z,56.91
2019-03-11T09:02:31.864Z,56.32
2019-03-11T09:04:38.529Z,56.32
2019-03-11T09:06:45.182Z,56.19
2019-03-11T09:08:51.897Z,56.54
2019-03-11T09:10:58.574Z,57.96
2019-03-11T09:13:05.341Z,58.54
2019-03-11T09:15:24.319Z,56.85
2019-03-11T09:17:31.072Z,56.70
2019-03-11T09:19:37.746Z,56.48
2019-03-11T09:21:44.475Z,56.10
2019-03-11T09:23:52.134Z,56.23
2019-03-11T09:25:58.910Z,55.06
2019-03-11T09:28:05.960Z,55.86
2019-03-11T09:30:18.464Z,54.62
2019-03-11T09:32:25.172Z,53.89
2019-03-11T09:34:31.836Z,54.33
2019-03-11T09:36:38.587Z,53.54
2019-03-11T09:38:45.336Z,53.46
2019-03-11T09:40:52.059Z,52.74
2019-03-11T09:42:58.850Z,53.10
2019-03-11T09:45:10.148Z,53.95
2019-03-11T09:47:19.640Z,54.84
2019-03-11T09:49:26.340Z,53.84
2019-03-11T09:51:33.991Z,54.54
2019-03-11T09:53:40.743Z,55.20
2019-03-11T09:55:47.421Z,54.32
2019-03-11T09:57:54.147Z,55.56
2019-03-11T10:00:00.794Z,54.79
2019-03-11T10:02:07.686Z,53.87
2019-03-11T10:04:14.334Z,52.88
2019-03-11T10:06:21.058Z,52.47
2019-03-11T10:08:27.752Z,52.42
2019-03-11T10:10:34.419Z,51.27
2019-03-11T10:12:41.065Z,48.00
2019-03-11T10:14:47.751Z,47.42
2019-03-11T10:16:54.503Z,46.67
2019-03-11T10:19:01.262Z,48.60
2019-03-11T10:21:07.947Z,49.19
2019-03-11T10:23:14.670Z,47.63
2019-03-11T10:25:22.195Z,49.48
2019-03-11T10:27:28.872Z,50.56
2019-03-11T10:29:35.574Z,48.63
2019-03-11T10:31:42.225Z,48.78
2019-03-11T10:33:48.973Z,48.39
2019-03-11T10:35:55.651Z,49.83
2019-03-11T10:38:02.292Z,50.35
2019-03-11T10:40:23.555Z,50.01
2019-03-11T10:42:30.203Z,50.56
2019-03-11T10:44:36.910Z,49.64
2019-03-11T10:46:44.963Z,49.24
2019-03-11T10:48:51.887Z,46.47
2019-03-11T10:50:58.754Z,44.00
2019-03-11T10:53:05.532Z,44.31
2019-03-11T10:55:17.411Z,43.02
2019-03-11T10:57:24.163Z,42.48
2019-03-11T10:59:30.915Z,41.41
2019-03-11T11:01:38.333Z,42.20
2019-03-11T11:03:45.050Z,41.42
2019-03-11T11:05:51.802Z,42.19
2019-03-11T11:07:58.455Z,42.22
2019-03-11T11:10:12.260Z,42.25
2019-03-11T11:12:19.010Z,42.21
2019-03-11T11:14:25.684Z,43.16
2019-03-11T11:16:32.346Z,42.04
2019-03-11T11:18:39.086Z,41.43
2019-03-11T11:20:45.732Z,42.04
2019-03-11T11:22:54.149Z,41.92
2019-03-11T11:25:00.841Z,42.16
2019-03-11T11:27:09.013Z,44.04
2019-03-11T11:29:15.736Z,43.17
2019-03-11T11:31:22.489Z,43.09
2019-03-11T11:33:29.134Z,45.60
2019-03-11T11:35:35.894Z,43.20
2019-03-11T11:37:42.660Z,43.72
2019-03-11T11:39:49.325Z,44.39
2019-03-11T11:41:55.989Z,43.96
2019-03-11T11:44:02.735Z,44.17
2019-03-11T11:46:09.391Z,45.03
2019-03-11T11:48:16.109Z,43.12
2019-03-11T11:50:24.253Z,44.63
2019-03-11T11:52:30.953Z,44.03
2019-03-11T11:54:37.603Z,44.08
2019-03-11T11:56:44.299Z,43.04
2019-03-11T11:58:50.972Z,43.02
2019-03-11T12:00:57.725Z,43.18
2019-03-11T12:03:04.480Z,42.75
2019-03-11T12:05:15.248Z,43.43
2019-03-11T12:07:21.907Z,42.24
2019-03-11T12:09:28.755Z,44.51
2019-03-11T12:11:35.401Z,41.72
2019-03-11T12:13:42.055Z,42.29
2019-03-11T12:15:48.737Z,42.28
2019-03-11T12:17:55.464Z,42.64
2019-03-11T12:20:02.162Z,42.09
2019-03-11T12:22:08.935Z,42.43
2019-03-11T12:24:15.590Z,43.55
2019-03-11T12:26:22.330Z,43.86
2019-03-11T12:28:29.080Z,42.73
2019-03-11T12:30:37.231Z,42.92
2019-03-11T12:32:43.881Z,44.11
2019-03-11T12:34:50.557Z,42.40
2019-03-11T12:36:57.399Z,43.09
2019-03-11T12:39:06.441Z,42.97
2019-03-11T12:41:13.829Z,42.10
2019-03-11T12:43:20.560Z,42.33
2019-03-11T12:45:27.784Z,41.71
2019-03-11T12:47:34.468Z,40.48
2019-03-11T12:49:41.151Z,40.03
2019-03-11T12:51:50.078Z,40.85
2019-03-11T12:53:56.400Z,42.77
2019-03-11T12:56:03.119Z,40.24
2019-03-11T12:58:09.889Z,39.71
2019-03-11T13:00:21.907Z,42.30
2019-03-11T13:02:28.550Z,41.00
2019-03-11T13:04:35.298Z,40.01
2019-03-11T13:06:43.015Z,40.54
2019-03-11T13:08:49.713Z,40.52
2019-03-11T13:10:56.364Z,39.68
2019-03-11T13:13:03.105Z,40.40
2019-03-11T13:15:13.274Z,39.14
2019-03-11T13:17:20.219Z,39.67
2019-03-11T13:19:26.885Z,38.77
2019-03-11T13:21:33.573Z,38.68
2019-03-11T13:23:41.561Z,40.05
2019-03-11T13:25:49.801Z,38.15
2019-03-11T13:27:56.454Z,38.32
2019-03-11T13:30:03.249Z,38.01
2019-03-11T13:32:11.226Z,39.73
2019-03-11T13:34:17.963Z,39.58
2019-03-11T13:36:24.799Z,38.08
2019-03-11T13:38:31.477Z,38.42
2019-03-11T13:40:38.186Z,39.09
2019-03-11T13:42:44.832Z,39.06
2019-03-11T13:44:52.265Z,41.04
2019-03-11T13:46:59.009Z,40.35
2019-03-11T13:49:06.074Z,39.41
2019-03-11T13:51:12.760Z,39.08
2019-03-11T13:53:19.486Z,39.24
2019-03-11T13:55:26.145Z,39.59
2019-03-11T13:57:32.898Z,39.65
2019-03-11T13:59:39.569Z,40.54
2019-03-11T14:01:46.217Z,39.97
2019-03-11T14:03:52.963Z,40.07
2019-03-11T14:05:59.654Z,39.43
2019-03-11T14:08:06.327Z,40.10
2019-03-11T14:10:14.400Z,40.19
2019-03-11T14:12:21.122Z,41.10
2019-03-11T14:14:27.850Z,41.28
2019-03-11T14:16:34.546Z,39.63
2019-03-11T14:18:41.279Z,39.52
2019-03-11T14:20:47.948Z,40.84
2019-03-11T14:22:55.754Z,39.52
2019-03-11T14:25:02.403Z,39.63
2019-03-11T14:27:09.064Z,39.51
2019-03-11T14:29:15.816Z,39.01
2019-03-11T14:31:22.466Z,38.28
2019-03-11T14:33:29.198Z,38.65
2019-03-11T14:35:35.946Z,38.78
2019-03-11T14:37:42.665Z,39.56
2019-03-11T14:39:49.335Z,39.21
2019-03-11T14:41:56.187Z,40.02
2019-03-11T14:44:02.912Z,39.64
2019-03-11T14:46:09.559Z,40.43
2019-03-11T14:48:16.250Z,40.72
2019-03-11T14:50:22.900Z,41.61
2019-03-11T14:52:29.631Z,40.66
2019-03-11T14:54:36.375Z,41.97
2019-03-11T14:56:43.031Z,41.05
2019-03-11T14:58:50.779Z,42.39
2019-03-11T15:00:59.236Z,42.33
2019-03-11T15:03:05.991Z,42.72
2019-03-11T15:05:12.834Z,44.45
2019-03-11T15:07:19.590Z,43.91
2019-03-11T15:09:26.235Z,44.45
2019-03-11T15:11:34.431Z,44.82
2019-03-11T15:13:41.103Z,44.85
2019-03-11T15:15:47.754Z,46.00
2019-03-11T15:17:54.417Z,46.32
2019-03-11T15:20:01.086Z,46.21
2019-03-11T15:22:09.234Z,46.20
2019-03-11T15:24:15.960Z,47.33
2019-03-11T15:26:25.335Z,45.68
2019-03-11T15:28:31.067Z,46.58
2019-03-11T15:30:38.090Z,46.88
2019-03-11T15:32:44.765Z,46.90
2019-03-11T15:34:51.492Z,46.86
2019-03-11T15:36:58.265Z,47.36
2019-03-11T15:39:07.237Z,48.44
2019-03-11T15:41:14.409Z,48.68
2019-03-11T15:43:21.002Z,48.51
2019-03-11T15:45:37.839Z,49.16
2019-03-11T15:47:36.105Z,49.52
2019-03-11T15:49:45.227Z,50.65
2019-03-11T15:51:51.982Z,51.28
2019-03-11T15:53:58.700Z,51.73
2019-03-11T15:56:05.495Z,51.10
2019-03-11T15:58:12.171Z,51.58
2019-03-11T16:00:24.017Z,53.14
2019-03-11T16:02:30.676Z,53.91
2019-03-11T16:04:37.354Z,53.42
2019-03-11T16:06:44.012Z,53.67
2019-03-11T16:08:50.734Z,54.06
2019-03-11T16:10:57.486Z,54.11
2019-03-11T16:13:04.274Z,53.75
2019-03-11T16:15:13.020Z,53.82
2019-03-11T16:17:19.720Z,54.07
2019-03-11T16:19:28.992Z,53.68
2019-03-11T16:21:37.111Z,54.39
2019-03-11T16:23:43.781Z,54.85
2019-03-11T16:25:50.450Z,55.22
2019-03-11T16:27:57.095Z,55.90
2019-03-11T16:30:09.523Z,56.22
2019-03-11T16:32:16.191Z,55.78
2019-03-11T16:34:23.915Z,56.79
2019-03-11T16:36:30.600Z,57.08
2019-03-11T16:38:37.355Z,56.46
2019-03-11T16:40:44.010Z,57.21
2019-03-11T16:42:50.764Z,57.86
2019-03-11T16:44:58.090Z,57.72
2019-03-11T16:47:04.906Z,57.75
2019-03-11T16:49:11.661Z,58.74
2019-03-11T16:51:18.309Z,58.50
2019-03-11T16:53:24.963Z,59.35
2019-03-11T16:55:33.363Z,58.83
2019-03-11T16:57:40.021Z,59.45
2019-03-11T16:59:46.702Z,59.72
2019-03-11T17:01:53.434Z,59.85
2019-03-11T17:04:00.090Z,59.19
2019-03-11T17:06:06.747Z,59.34
2019-03-11T17:08:13.525Z,60.15
2019-03-11T17:10:22.458Z,60.71
2019-03-11T17:12:29.185Z,60.68
2019-03-11T17:14:35.948Z,60.19
2019-03-11T17:16:44.489Z,60.53
2019-03-11T17:18:51.236Z,61.31
2019-03-11T17:20:58.040Z,61.05
2019-03-11T17:23:04.704Z,61.33
2019-03-11T17:25:14.039Z,60.67
2019-03-11T17:27:22.253Z,61.68
2019-03-11T17:29:28.919Z,61.75
2019-03-11T17:31:36.653Z,61.43
2019-03-11T17:33:43.344Z,60.97
2019-03-11T17:35:50.082Z,61.81
2019-03-11T17:37:56.825Z,61.52
2019-03-11T17:40:03.737Z,61.72
2019-03-11T17:42:10.832Z,61.39
2019-03-11T17:44:17.575Z,61.92
2019-03-11T17:46:24.326Z,61.33
2019-03-11T17:48:30.987Z,62.25
2019-03-11T17:50:37.708Z,62.32
2019-03-11T17:52:44.839Z,62.67
2019-03-11T17:54:51.579Z,62.81
2019-03-11T17:56:59.718Z,62.83
2019-03-11T17:59:06.412Z,63.35
2019-03-11T18:01:13.129Z,62.91
2019-03-11T18:03:20.016Z,63.40
2019-03-11T18:05:26.711Z,63.53
2019-03-11T18:07:33.453Z,63.42
2019-03-11T18:09:43.035Z,64.41
2019-03-11T18:11:49.724Z,64.18
2019-03-11T18:13:56.398Z,64.43
2019-03-11T18:16:03.279Z,64.58
2019-03-11T18:18:09.972Z,64.56
2019-03-11T18:20:19.908Z,65.34
2019-03-11T18:22:26.887Z,65.43
2019-03-11T18:24:33.671Z,65.49
2019-03-11T18:26:40.510Z,65.98
2019-03-11T18:28:48.464Z,66.34
2019-03-11T18:30:55.199Z,66.62
2019-03-11T18:33:03.303Z,67.27
2019-03-11T18:35:09.973Z,67.99
2019-03-11T18:37:16.762Z,68.47
2019-03-11T18:39:23.450Z,68.32
2019-03-11T18:41:30.161Z,69.25
2019-03-11T18:43:42.722Z,69.55
2019-03-11T18:45:45.271Z,69.64
2019-03-11T18:47:51.979Z,69.58
2019-03-11T18:49:58.679Z,70.09
2019-03-11T18:52:05.334Z,70.43
2019-03-11T18:54:12.156Z,70.48
2019-03-11T18:56:19.119Z,70.93
2019-03-11T18:58:27.304Z,70.68
2019-03-11T19:00:34.554Z,70.57
2019-03-11T19:02:41.295Z,71.14
2019-03-11T19:04:48.030Z,71.60
2019-03-11T19:06:54.727Z,71.66
2019-03-11T19:09:01.405Z,72.16
2019-03-11T19:11:09.685Z,72.20
2019-03-11T19:13:17.951Z,72.53
2019-03-11T19:15:26.533Z,72.75
2019-03-11T19:17:33.351Z,72.91
2019-03-11T19:19:46.139Z,72.99
2019-03-11T19:21:48.468Z,73.33
2019-03-11T19:23:55.196Z,73.38
2019-03-11T19:26:01.833Z,73.66
2019-03-11T19:28:08.568Z,73.50
2019-03-11T19:30:26.551Z,74.01
2019-03-11T19:32:35.059Z,73.82
2019-03-11T19:34:41.968Z,73.58
2019-03-11T19:36:50.203Z,73.83
2019-03-11T19:38:57.103Z,73.87
2019-03-11T19:41:03.902Z,74.02
2019-03-11T19:43:10.759Z,74.02
2019-03-11T19:45:18.085Z,74.36
2019-03-11T19:47:26.254Z,74.59
2019-03-11T19:49:34.317Z,74.69
2019-03-11T19:51:41.141Z,74.91
2019-03-11T19:53:47.879Z,75.03
2019-03-11T19:55:55.751Z,75.29
2019-03-11T19:58:04.093Z,75.60
2019-03-11T20:00:22.647Z,75.66
2019-03-11T20:02:29.481Z,75.94
2019-03-11T20:04:37.342Z,76.16
2019-03-11T20:06:44.143Z,76.21
2019-03-11T20:08:52.325Z,76.57
2019-03-11T20:10:59.120Z,76.53
2019-03-11T20:13:06.320Z,76.76
2019-03-11T20:15:14.039Z,76.59
2019-03-11T20:17:20.869Z,76.85
2019-03-11T20:19:27.633Z,77.01
2019-03-11T20:21:34.313Z,77.16
2019-03-11T20:23:41.060Z,77.25
2019-03-11T20:25:48.002Z,77.29
2019-03-11T20:27:54.727Z,77.52
2019-03-11T20:30:01.608Z,77.67
2019-03-11T20:32:09.306Z,77.78
2019-03-11T20:34:16.175Z,77.95
2019-03-11T20:36:25.110Z,77.75
2019-03-11T20:38:31.444Z,78.03
2019-03-11T20:40:38.314Z,78.04
2019-03-11T20:42:45.003Z,78.16
2019-03-11T20:44:51.762Z,78.34
2019-03-11T20:46:58.510Z,78.43
2019-03-11T20:49:05.261Z,78.36
2019-03-11T20:51:12.066Z,78.48
2019-03-11T20:53:20.287Z,78.53
2019-03-11T20:55:27.073Z,78.67
2019-03-11T20:57:33.853Z,78.72
2019-03-11T20:59:40.601Z,78.80
2019-03-11T21:01:47.433Z,78.77
2019-03-11T21:03:54.225Z,78.77
2019-03-11T21:06:06.943Z,78.66
2019-03-11T21:08:14.544Z,78.55
2019-03-11T21:10:23.648Z,78.34
2019-03-11T21:12:33.458Z,78.38
2019-03-11T21:14:42.395Z,78.41
2019-03-11T21:16:49.150Z,78.46
2019-03-11T21:18:57.524Z,78.33
2019-03-11T21:21:05.377Z,78.17
2019-03-11T21:23:12.406Z,78.22
2019-03-11T21:25:23.551Z,78.19
2019-03-11T21:27:33.217Z,77.86
2019-03-11T21:29:39.983Z,78.05
2019-03-11T21:31:48.629Z,78.11
2019-03-11T21:33:58.963Z,78.02
2019-03-11T21:36:03.795Z,77.97
2019-03-11T21:38:10.659Z,78.10
2019-03-11T21:40:24.859Z,78.29
2019-03-11T21:42:31.752Z,78.32
2019-03-11T21:44:38.475Z,78.29
2019-03-11T21:46:45.244Z,78.13
2019-03-11T21:48:52.011Z,78.04
2019-03-11T21:50:58.844Z,77.97
2019-03-11T21:53:06.147Z,77.98
2019-03-11T21:55:13.612Z,77.87
2019-03-11T21:57:21.644Z,77.96
2019-03-11T21:59:28.480Z,77.93
2019-03-11T22:01:35.257Z,77.73
2019-03-11T22:03:42.991Z,77.99
2019-03-11T22:05:49.662Z,77.83
2019-03-11T22:07:56.348Z,77.82
2019-03-11T22:10:03.224Z,77.77
2019-03-11T22:12:12.899Z,77.78
2019-03-11T22:14:19.663Z,77.96
2019-03-11T22:16:27.620Z,77.97
2019-03-11T22:18:34.288Z,77.92
2019-03-11T22:20:40.982Z,77.76
2019-03-11T22:22:49.568Z,77.52
2019-03-11T22:24:56.242Z,77.60
2019-03-11T22:27:02.922Z,77.47
2019-03-11T22:29:12.126Z,77.52
2019-03-11T22:31:17.902Z,77.40
2019-03-11T22:33:24.444Z,77.31
2019-03-11T22:35:31.105Z,77.37
2019-03-11T22:37:37.777Z,77.54
2019-03-11T22:39:44.452Z,77.52
2019-03-11T22:41:52.761Z,77.51
2019-03-11T22:43:59.553Z,77.23
2019-03-11T22:46:06.301Z,77.23
2019-03-11T22:48:12.941Z,77.37
2019-03-11T22:50:19.904Z,77.56
2019-03-11T22:52:27.600Z,77.77
2019-03-11T22:54:34.337Z,77.86
2019-03-11T22:56:41.013Z,77.73
2019-03-11T22:58:48.092Z,77.68
2019-03-11T23:01:00.267Z,77.67
2019-03-11T23:03:09.765Z,77.68
2019-03-11T23:05:16.537Z,77.72
2019-03-11T23:07:23.303Z,77.80
2019-03-11T23:09:31.041Z,77.46
2019-03-11T23:11:37.861Z,77.50
2019-03-11T23:13:44.522Z,77.39
2019-03-11T23:15:51.184Z,77.49
2019-03-11T23:17:58.870Z,77.57
2019-03-11T23:20:08.334Z,77.34
2019-03-11T23:22:14.994Z,77.40
2019-03-11T23:24:21.687Z,77.29
2019-03-11T23:26:28.374Z,77.37
2019-03-11T23:28:35.030Z,77.16
2019-03-11T23:30:41.790Z,77.25
2019-03-11T23:32:48.455Z,77.16
2019-03-11T23:34:55.167Z,77.31
2019-03-11T23:37:01.843Z,77.49
2019-03-11T23:39:09.115Z,77.51
2019-03-11T23:41:17.095Z,77.76
2019-03-11T23:43:23.772Z,77.83
2019-03-11T23:45:30.421Z,77.55
2019-03-11T23:47:37.087Z,77.70
2019-03-11T23:49:43.845Z,77.66
2019-03-11T23:51:50.507Z,77.29
2019-03-11T23:53:57.174Z,77.22
2019-03-11T23:56:03.903Z,77.01
2019-03-11T23:58:10.553Z,76.96
